Terminal Aerodrome Forecast
Issued by NWS

Home | Current Version | Previous Version | Text Only | Print | Product List | Glossary On
Versions: 1 2 3 4 5 6 7 8 9 10 11 12 13 14 15 16 17 18 19 20 21 22 23 24 25 26
000
FTUS44 KJAN 191120
TAFGTR
TAF
KGTR 191120Z 1912/2012 18003KT P6SM SCT040 BKN080
     FM191400 20008KT P6SM SCT035 SCT250
     FM192200 21010G19KT P6SM VCTS SCT050CB
     FM200700 21010KT P6SM VCTS BKN050CB=

USA.gov is the U.S. government's official web portal to all federal, state and local government web resources and services.